Black River (Missouri), Poplar Bluff (07063000)

StateMissouriLatestFlood (7340 cfs)
RiverBlack RiverRatingObservedEstimated
Updated2024-05-27 7:15 (1 hour ago)Flood - The river is flooding. Obstacles can be treacherous or deadly. The river should be avoided at this stage for casual trips and definitely for the inexperienced. Trips should be attempted only with protective gear and equipment.Flood(none)4100
Discharge7340 cfs (median: 1400 cfs)High - The river is high and potentially dangerous, especially for the young and / or inexperienced. Normal stream obstacles are sometimes difficult to navigate. Extended distances can be attempted, but canoe travel may not be advisable.High(none)1999
Height16.26 feetGood - Conditions are ideal for a canoe or kayak. Boats typically will drag on fewer than one-quarter of riffles, if at all, and portages are unnecessary or rare. Normal float lengths can be attempted without a problem.Good(none)969
TrendRising (rising over 24 hours)Low - River is low but can still be floated. Some riffles are okay but most come with significant dragging and might need a portage. Float lengths should be reduced to accommodate low flow, dragging, and portages.Low(none)644
USGSExternal icon USGS Site (External icon Duck Duck Go Maps)Poor - River is too low to float comfortably. Most or all riffles will drag or must be portaged and some obstacles (such as slick shelf rock) cause undue problems. Avoid the river at this stage for casual paddling trips.Poor(none)340

Trending Data

Plot Image

Trips for Black River (Missouri), Poplar Bluff (07063000)

DateStartEndDistanceConditionDischargeHeightFishingDetails

A total of 0 rows are displayed.

Condition Descriptions

Fishing Conditions

Fish Species

Notes

Classic Trip List

The classic River Trips application is still available for use. It is updated with the new system using a data retrofit. It is no longer maintained. The original River Trips application is no longer updated (as of 1 Dec 2016) but can be checked for errors or for the condition of the data before it was converted to the new system.

Gauge Data Table

ObservationHeightDischargeMaximum
Discharge
Minimum
Discharge
Mean
Discharge
P05P10P20P25P50
(Median)
P75P80P90P95
2024-05-27 07:15 16.26 7340 6670 (1973) 327 (2001) 1950 494 601 776 898 1400 3200 3530 4070 4400
2024-05-27 06:15 16.06 7100 6670 (1973) 327 (2001) 1950 494 601 776 898 1400 3200 3530 4070 4400
2024-05-27 05:15 15.81 6930 6670 (1973) 327 (2001) 1950 494 601 776 898 1400 3200 3530 4070 4400
2024-05-27 04:15 15.50 6710 6670 (1973) 327 (2001) 1950 494 601 776 898 1400 3200 3530 4070 4400
2024-05-27 03:15 15.14 6470 6670 (1973) 327 (2001) 1950 494 601 776 898 1400 3200 3530 4070 4400
2024-05-27 02:15 14.72 6190 6670 (1973) 327 (2001) 1950 494 601 776 898 1400 3200 3530 4070 4400
2024-05-27 01:15 14.23 5910 6670 (1973) 327 (2001) 1950 494 601 776 898 1400 3200 3530 4070 4400
2024-05-27 00:15 13.73 5620 6670 (1973) 327 (2001) 1950 494 601 776 898 1400 3200 3530 4070 4400
2024-05-26 23:15 13.20 5340 6670 (1973) 327 (2001) 1950 494 601 776 898 1400 3200 3530 4070 4400
2024-05-26 22:15 12.72 5130 5520 (1957) 331 (2001) 1870 477 564 722 857 1450 2690 3440 3860 4150
2024-05-26 21:15 12.09 4850 5520 (1957) 331 (2001) 1870 477 564 722 857 1450 2690 3440 3860 4150
2024-05-26 20:15 11.62 4640 5520 (1957) 331 (2001) 1870 477 564 722 857 1450 2690 3440 3860 4150
2024-05-26 19:15 11.16 4440 5520 (1957) 331 (2001) 1870 477 564 722 857 1450 2690 3440 3860 4150
2024-05-26 18:15 10.59 4190 5520 (1957) 331 (2001) 1870 477 564 722 857 1450 2690 3440 3860 4150
2024-05-26 17:15 9.94 3920 5520 (1957) 331 (2001) 1870 477 564 722 857 1450 2690 3440 3860 4150
2024-05-26 16:15 9.19 3620 5520 (1957) 331 (2001) 1870 477 564 722 857 1450 2690 3440 3860 4150
2024-05-26 15:15 8.35 3300 5520 (1957) 331 (2001) 1870 477 564 722 857 1450 2690 3440 3860 4150
2024-05-26 14:15 7.47 2970 5520 (1957) 331 (2001) 1870 477 564 722 857 1450 2690 3440 3860 4150
2024-05-26 13:15 6.58 2660 5520 (1957) 331 (2001) 1870 477 564 722 857 1450 2690 3440 3860 4150
2024-05-26 12:15 5.68 2360 5520 (1957) 331 (2001) 1870 477 564 722 857 1450 2690 3440 3860 4150
2024-05-26 11:15 4.88 2100 5520 (1957) 331 (2001) 1870 477 564 722 857 1450 2690 3440 3860 4150
2024-05-26 10:15 4.25 1890 5520 (1957) 331 (2001) 1870 477 564 722 857 1450 2690 3440 3860 4150
2024-05-26 09:15 3.67 1710 5520 (1957) 331 (2001) 1870 477 564 722 857 1450 2690 3440 3860 4150
2024-05-26 08:15 3.54 1660 5520 (1957) 331 (2001) 1870 477 564 722 857 1450 2690 3440 3860 4150
2024-05-26 07:15 3.29 1580 5520 (1957) 331 (2001) 1870 477 564 722 857 1450 2690 3440 3860 4150
2024-05-26 06:15 2.79 1400 5520 (1957) 331 (2001) 1870 477 564 722 857 1450 2690 3440 3860 4150
2024-05-26 05:15 2.78 1390 5520 (1957) 331 (2001) 1870 477 564 722 857 1450 2690 3440 3860 4150
2024-05-26 04:15 2.81 1400 5520 (1957) 331 (2001) 1870 477 564 722 857 1450 2690 3440 3860 4150
2024-05-26 03:15 2.82 1410 5520 (1957) 331 (2001) 1870 477 564 722 857 1450 2690 3440 3860 4150
2024-05-26 02:15 2.84 1420 5520 (1957) 331 (2001) 1870 477 564 722 857 1450 2690 3440 3860 4150
2024-05-26 01:15 2.87 1430 5520 (1957) 331 (2001) 1870 477 564 722 857 1450 2690 3440 3860 4150
2024-05-26 00:15 2.89 1430 5520 (1957) 331 (2001) 1870 477 564 722 857 1450 2690 3440 3860 4150
2024-05-25 23:15 2.93 1450 5520 (1957) 331 (2001) 1870 477 564 722 857 1450 2690 3440 3860 4150
2024-05-25 22:15 2.94 1450 6640 (1957) 338 (2001) 1910 504 558 705 795 1470 2830 3370 3990 4230
2024-05-25 21:15 2.98 1460 6640 (1957) 338 (2001) 1910 504 558 705 795 1470 2830 3370 3990 4230
2024-05-25 20:15 3.01 1480 6640 (1957) 338 (2001) 1910 504 558 705 795 1470 2830 3370 3990 4230
2024-05-25 19:15 3.04 1490 6640 (1957) 338 (2001) 1910 504 558 705 795 1470 2830 3370 3990 4230
2024-05-25 18:15 3.08 1500 6640 (1957) 338 (2001) 1910 504 558 705 795 1470 2830 3370 3990 4230
2024-05-25 17:15 3.12 1510 6640 (1957) 338 (2001) 1910 504 558 705 795 1470 2830 3370 3990 4230
2024-05-25 16:15 3.15 1530 6640 (1957) 338 (2001) 1910 504 558 705 795 1470 2830 3370 3990 4230
2024-05-25 15:15 3.19 1540 6640 (1957) 338 (2001) 1910 504 558 705 795 1470 2830 3370 3990 4230
2024-05-25 14:15 3.24 1560 6640 (1957) 338 (2001) 1910 504 558 705 795 1470 2830 3370 3990 4230
2024-05-25 13:15 3.28 1570 6640 (1957) 338 (2001) 1910 504 558 705 795 1470 2830 3370 3990 4230
2024-05-25 12:15 3.35 1600 6640 (1957) 338 (2001) 1910 504 558 705 795 1470 2830 3370 3990 4230
2024-05-25 11:15 3.39 1610 6640 (1957) 338 (2001) 1910 504 558 705 795 1470 2830 3370 3990 4230
2024-05-25 10:15 3.45 1630 6640 (1957) 338 (2001) 1910 504 558 705 795 1470 2830 3370 3990 4230
2024-05-25 09:15 3.50 1650 6640 (1957) 338 (2001) 1910 504 558 705 795 1470 2830 3370 3990 4230
2024-05-25 08:15 3.55 1670 6640 (1957) 338 (2001) 1910 504 558 705 795 1470 2830 3370 3990 4230
2024-05-25 07:15 3.61 1690 6640 (1957) 338 (2001) 1910 504 558 705 795 1470 2830 3370 3990 4230
2024-05-25 06:15 3.67 1710 6640 (1957) 338 (2001) 1910 504 558 705 795 1470 2830 3370 3990 4230
2024-05-25 05:15 3.72 1720 6640 (1957) 338 (2001) 1910 504 558 705 795 1470 2830 3370 3990 4230
2024-05-25 04:15 3.76 1730 6640 (1957) 338 (2001) 1910 504 558 705 795 1470 2830 3370 3990 4230
2024-05-25 03:15 3.81 1750 6640 (1957) 338 (2001) 1910 504 558 705 795 1470 2830 3370 3990 4230
2024-05-25 02:15 3.85 1760 6640 (1957) 338 (2001) 1910 504 558 705 795 1470 2830 3370 3990 4230
2024-05-25 01:15 3.90 1780 6640 (1957) 338 (2001) 1910 504 558 705 795 1470 2830 3370 3990 4230
2024-05-25 00:15 3.93 1790 6640 (1957) 338 (2001) 1910 504 558 705 795 1470 2830 3370 3990 4230
2024-05-24 23:15 3.97 1800 6640 (1957) 338 (2001) 1910 504 558 705 795 1470 2830 3370 3990 4230
2024-05-24 22:15 4.02 1820 11500 (1957) 316 (2000) 2010 479 560 687 831 1570 2920 3360 3950 4280
2024-05-24 21:15 4.06 1830 11500 (1957) 316 (2000) 2010 479 560 687 831 1570 2920 3360 3950 4280
2024-05-24 20:15 4.11 1850 11500 (1957) 316 (2000) 2010 479 560 687 831 1570 2920 3360 3950 4280
2024-05-24 19:15 4.14 1860 11500 (1957) 316 (2000) 2010 479 560 687 831 1570 2920 3360 3950 4280
2024-05-24 18:15 4.20 1880 11500 (1957) 316 (2000) 2010 479 560 687 831 1570 2920 3360 3950 4280
2024-05-24 17:15 4.26 1900 11500 (1957) 316 (2000) 2010 479 560 687 831 1570 2920 3360 3950 4280
2024-05-24 16:15 4.31 1910 11500 (1957) 316 (2000) 2010 479 560 687 831 1570 2920 3360 3950 4280
2024-05-24 15:15 4.40 1940 11500 (1957) 316 (2000) 2010 479 560 687 831 1570 2920 3360 3950 4280
2024-05-24 14:15 4.47 1960 11500 (1957) 316 (2000) 2010 479 560 687 831 1570 2920 3360 3950 4280
2024-05-24 13:15 4.54 1990 11500 (1957) 316 (2000) 2010 479 560 687 831 1570 2920 3360 3950 4280
2024-05-24 12:15 4.64 2020 11500 (1957) 316 (2000) 2010 479 560 687 831 1570 2920 3360 3950 4280
2024-05-24 11:15 4.73 2050 11500 (1957) 316 (2000) 2010 479 560 687 831 1570 2920 3360 3950 4280
2024-05-24 10:15 4.83 2080 11500 (1957) 316 (2000) 2010 479 560 687 831 1570 2920 3360 3950 4280
2024-05-24 09:15 4.94 2120 11500 (1957) 316 (2000) 2010 479 560 687 831 1570 2920 3360 3950 4280
2024-05-24 08:15 5.03 2150 11500 (1957) 316 (2000) 2010 479 560 687 831 1570 2920 3360 3950 4280
2024-05-24 07:15 5.13 2180 11500 (1957) 316 (2000) 2010 479 560 687 831 1570 2920 3360 3950 4280
2024-05-24 06:15 5.23 2210 11500 (1957) 316 (2000) 2010 479 560 687 831 1570 2920 3360 3950 4280
2024-05-24 05:15 5.32 2240 11500 (1957) 316 (2000) 2010 479 560 687 831 1570 2920 3360 3950 4280
2024-05-24 04:15 5.43 2280 11500 (1957) 316 (2000) 2010 479 560 687 831 1570 2920 3360 3950 4280
2024-05-24 03:15 5.52 2310 11500 (1957) 316 (2000) 2010 479 560 687 831 1570 2920 3360 3950 4280
2024-05-24 02:15 5.61 2340 11500 (1957) 316 (2000) 2010 479 560 687 831 1570 2920 3360 3950 4280
2024-05-24 01:15 5.68 2360 11500 (1957) 316 (2000) 2010 479 560 687 831 1570 2920 3360 3950 4280
2024-05-24 00:15 5.76 2380 11500 (1957) 316 (2000) 2010 479 560 687 831 1570 2920 3360 3950 4280
2024-05-23 23:15 5.82 2400 11500 (1957) 316 (2000) 2010 479 560 687 831 1570 2920 3360 3950 4280
2024-05-23 22:15 5.87 2420 8420 (1957) 324 (2000) 2080 494 561 728 790 1680 3170 3650 3970 4360
2024-05-23 21:15 5.93 2440 8420 (1957) 324 (2000) 2080 494 561 728 790 1680 3170 3650 3970 4360
2024-05-23 20:15 6.00 2460 8420 (1957) 324 (2000) 2080 494 561 728 790 1680 3170 3650 3970 4360
2024-05-23 19:15 6.05 2480 8420 (1957) 324 (2000) 2080 494 561 728 790 1680 3170 3650 3970 4360
2024-05-23 18:15 6.11 2500 8420 (1957) 324 (2000) 2080 494 561 728 790 1680 3170 3650 3970 4360
2024-05-23 17:15 6.17 2520 8420 (1957) 324 (2000) 2080 494 561 728 790 1680 3170 3650 3970 4360
2024-05-23 16:15 6.23 2540 8420 (1957) 324 (2000) 2080 494 561 728 790 1680 3170 3650 3970 4360
2024-05-23 15:15 6.31 2570 8420 (1957) 324 (2000) 2080 494 561 728 790 1680 3170 3650 3970 4360
2024-05-23 14:15 6.38 2590 8420 (1957) 324 (2000) 2080 494 561 728 790 1680 3170 3650 3970 4360
2024-05-23 13:15 6.47 2620 8420 (1957) 324 (2000) 2080 494 561 728 790 1680 3170 3650 3970 4360
2024-05-23 12:15 6.55 2650 8420 (1957) 324 (2000) 2080 494 561 728 790 1680 3170 3650 3970 4360
2024-05-23 11:15 6.67 2690 8420 (1957) 324 (2000) 2080 494 561 728 790 1680 3170 3650 3970 4360
2024-05-23 10:15 6.78 2720 8420 (1957) 324 (2000) 2080 494 561 728 790 1680 3170 3650 3970 4360
2024-05-23 09:15 6.91 2760 8420 (1957) 324 (2000) 2080 494 561 728 790 1680 3170 3650 3970 4360
2024-05-23 08:15 7.04 2810 8420 (1957) 324 (2000) 2080 494 561 728 790 1680 3170 3650 3970 4360
2024-05-23 07:15 7.16 2850 8420 (1957) 324 (2000) 2080 494 561 728 790 1680 3170 3650 3970 4360
2024-05-23 06:15 7.32 2910 8420 (1957) 324 (2000) 2080 494 561 728 790 1680 3170 3650 3970 4360
2024-05-23 05:15 7.45 2960 8420 (1957) 324 (2000) 2080 494 561 728 790 1680 3170 3650 3970 4360
2024-05-23 04:15 7.56 3000 8420 (1957) 324 (2000) 2080 494 561 728 790 1680 3170 3650 3970 4360
2024-05-23 03:15 7.69 3050 8420 (1957) 324 (2000) 2080 494 561 728 790 1680 3170 3650 3970 4360
2024-05-23 02:15 7.79 3090 8420 (1957) 324 (2000) 2080 494 561 728 790 1680 3170 3650 3970 4360
2024-05-23 01:15 7.88 3120 8420 (1957) 324 (2000) 2080 494 561 728 790 1680 3170 3650 3970 4360
2024-05-23 00:15 7.94 3150 8420 (1957) 324 (2000) 2080 494 561 728 790 1680 3170 3650 3970 4360
2024-05-22 23:15 8.00 3170 8420 (1957) 324 (2000) 2080 494 561 728 790 1680 3170 3650 3970 4360
2024-05-22 22:15 8.02 3180 5530 (2019) 357 (2001) 2080 509 572 730 818 1850 3180 3490 3970 4280
2024-05-22 21:15 8.05 3190 5530 (2019) 357 (2001) 2080 509 572 730 818 1850 3180 3490 3970 4280
2024-05-22 20:15 8.07 3190 5530 (2019) 357 (2001) 2080 509 572 730 818 1850 3180 3490 3970 4280
2024-05-22 19:15 8.08 3200 5530 (2019) 357 (2001) 2080 509 572 730 818 1850 3180 3490 3970 4280
2024-05-22 18:15 8.09 3200 5530 (2019) 357 (2001) 2080 509 572 730 818 1850 3180 3490 3970 4280
2024-05-22 17:15 8.10 3210 5530 (2019) 357 (2001) 2080 509 572 730 818 1850 3180 3490 3970 4280
2024-05-22 16:15 8.11 3210 5530 (2019) 357 (2001) 2080 509 572 730 818 1850 3180 3490 3970 4280
2024-05-22 15:15 8.13 3220 5530 (2019) 357 (2001) 2080 509 572 730 818 1850 3180 3490 3970 4280
2024-05-22 14:15 8.13 3220 5530 (2019) 357 (2001) 2080 509 572 730 818 1850 3180 3490 3970 4280
2024-05-22 13:15 8.13 3220 5530 (2019) 357 (2001) 2080 509 572 730 818 1850 3180 3490 3970 4280
2024-05-22 12:15 8.17 3230 5530 (2019) 357 (2001) 2080 509 572 730 818 1850 3180 3490 3970 4280
2024-05-22 11:15 8.16 3230 5530 (2019) 357 (2001) 2080 509 572 730 818 1850 3180 3490 3970 4280
2024-05-22 10:15 8.19 3240 5530 (2019) 357 (2001) 2080 509 572 730 818 1850 3180 3490 3970 4280
2024-05-22 09:15 8.20 3240 5530 (2019) 357 (2001) 2080 509 572 730 818 1850 3180 3490 3970 4280
2024-05-22 08:15 8.21 3250 5530 (2019) 357 (2001) 2080 509 572 730 818 1850 3180 3490 3970 4280
2024-05-22 07:15 8.23 3250 5530 (2019) 357 (2001) 2080 509 572 730 818 1850 3180 3490 3970 4280
2024-05-22 06:15 8.25 3260 5530 (2019) 357 (2001) 2080 509 572 730 818 1850 3180 3490 3970 4280
2024-05-22 05:15 8.27 3270 5530 (2019) 357 (2001) 2080 509 572 730 818 1850 3180 3490 3970 4280
2024-05-22 04:15 8.27 3270 5530 (2019) 357 (2001) 2080 509 572 730 818 1850 3180 3490 3970 4280
2024-05-22 03:15 8.28 3270 5530 (2019) 357 (2001) 2080 509 572 730 818 1850 3180 3490 3970 4280
2024-05-22 02:15 8.30 3280 5530 (2019) 357 (2001) 2080 509 572 730 818 1850 3180 3490 3970 4280
2024-05-22 01:15 8.31 3280 5530 (2019) 357 (2001) 2080 509 572 730 818 1850 3180 3490 3970 4280
2024-05-22 00:15 8.33 3290 5530 (2019) 357 (2001) 2080 509 572 730 818 1850 3180 3490 3970 4280
2024-05-21 23:15 8.35 3300 5530 (2019) 357 (2001) 2080 509 572 730 818 1850 3180 3490 3970 4280
2024-05-21 22:15 8.37 3310 4440 (2017) 364 (2001) 2080 520 597 779 892 1940 3340 3480 3930 4120
2024-05-21 21:15 8.39 3320 4440 (2017) 364 (2001) 2080 520 597 779 892 1940 3340 3480 3930 4120
2024-05-21 20:15 8.40 3320 4440 (2017) 364 (2001) 2080 520 597 779 892 1940 3340 3480 3930 4120
2024-05-21 19:15 8.41 3320 4440 (2017) 364 (2001) 2080 520 597 779 892 1940 3340 3480 3930 4120
2024-05-21 18:15 8.43 3330 4440 (2017) 364 (2001) 2080 520 597 779 892 1940 3340 3480 3930 4120
2024-05-21 17:15 8.43 3330 4440 (2017) 364 (2001) 2080 520 597 779 892 1940 3340 3480 3930 4120
2024-05-21 16:15 8.46 3340 4440 (2017) 364 (2001) 2080 520 597 779 892 1940 3340 3480 3930 4120
2024-05-21 15:15 8.47 3350 4440 (2017) 364 (2001) 2080 520 597 779 892 1940 3340 3480 3930 4120
2024-05-21 14:15 8.47 3350 4440 (2017) 364 (2001) 2080 520 597 779 892 1940 3340 3480 3930 4120
2024-05-21 13:15 8.49 3350 4440 (2017) 364 (2001) 2080 520 597 779 892 1940 3340 3480 3930 4120
2024-05-21 12:15 8.52 3360 4440 (2017) 364 (2001) 2080 520 597 779 892 1940 3340 3480 3930 4120
2024-05-21 11:15 8.55 3380 4440 (2017) 364 (2001) 2080 520 597 779 892 1940 3340 3480 3930 4120
2024-05-21 10:15 8.54 3370 4440 (2017) 364 (2001) 2080 520 597 779 892 1940 3340 3480 3930 4120
2024-05-21 09:15 8.55 3380 4440 (2017) 364 (2001) 2080 520 597 779 892 1940 3340 3480 3930 4120
2024-05-21 08:15 8.56 3380 4440 (2017) 364 (2001) 2080 520 597 779 892 1940 3340 3480 3930 4120
2024-05-21 07:15 8.59 3390 4440 (2017) 364 (2001) 2080 520 597 779 892 1940 3340 3480 3930 4120
2024-05-21 06:15 8.59 3390 4440 (2017) 364 (2001) 2080 520 597 779 892 1940 3340 3480 3930 4120
2024-05-21 05:15 8.61 3400 4440 (2017) 364 (2001) 2080 520 597 779 892 1940 3340 3480 3930 4120
2024-05-21 04:15 8.62 3400 4440 (2017) 364 (2001) 2080 520 597 779 892 1940 3340 3480 3930 4120
2024-05-21 03:15 8.65 3410 4440 (2017) 364 (2001) 2080 520 597 779 892 1940 3340 3480 3930 4120
2024-05-21 02:15 8.67 3420 4440 (2017) 364 (2001) 2080 520 597 779 892 1940 3340 3480 3930 4120
2024-05-21 01:15 8.68 3420 4440 (2017) 364 (2001) 2080 520 597 779 892 1940 3340 3480 3930 4120
2024-05-21 00:15 8.69 3430 4440 (2017) 364 (2001) 2080 520 597 779 892 1940 3340 3480 3930 4120
2024-05-20 23:15 8.70 3430 4440 (2017) 364 (2001) 2080 520 597 779 892 1940 3340 3480 3930 4120
2024-05-20 22:15 8.73 3440 5010 (2017) 365 (2001) 2130 520 600 818 929 2020 3230 3420 3950 4190
2024-05-20 21:15 8.75 3450 5010 (2017) 365 (2001) 2130 520 600 818 929 2020 3230 3420 3950 4190
2024-05-20 20:15 8.75 3450 5010 (2017) 365 (2001) 2130 520 600 818 929 2020 3230 3420 3950 4190
2024-05-20 19:15 8.77 3460 5010 (2017) 365 (2001) 2130 520 600 818 929 2020 3230 3420 3950 4190
2024-05-20 18:15 8.79 3470 5010 (2017) 365 (2001) 2130 520 600 818 929 2020 3230 3420 3950 4190
2024-05-20 17:15 8.80 3470 5010 (2017) 365 (2001) 2130 520 600 818 929 2020 3230 3420 3950 4190
2024-05-20 16:15 8.82 3480 5010 (2017) 365 (2001) 2130 520 600 818 929 2020 3230 3420 3950 4190
2024-05-20 15:15 8.83 3480 5010 (2017) 365 (2001) 2130 520 600 818 929 2020 3230 3420 3950 4190
2024-05-20 14:15 8.84 3480 5010 (2017) 365 (2001) 2130 520 600 818 929 2020 3230 3420 3950 4190
2024-05-20 13:15 8.86 3490 5010 (2017) 365 (2001) 2130 520 600 818 929 2020 3230 3420 3950 4190
2024-05-20 12:15 8.88 3500 5010 (2017) 365 (2001) 2130 520 600 818 929 2020 3230 3420 3950 4190
2024-05-20 11:15 8.89 3500 5010 (2017) 365 (2001) 2130 520 600 818 929 2020 3230 3420 3950 4190
2024-05-20 10:15 8.90 3510 5010 (2017) 365 (2001) 2130 520 600 818 929 2020 3230 3420 3950 4190
2024-05-20 09:15 8.91 3510 5010 (2017) 365 (2001) 2130 520 600 818 929 2020 3230 3420 3950 4190
2024-05-20 08:15 8.93 3520 5010 (2017) 365 (2001) 2130 520 600 818 929 2020 3230 3420 3950 4190
2024-05-20 07:15 8.93 3520 5010 (2017) 365 (2001) 2130 520 600 818 929 2020 3230 3420 3950 4190
2024-05-20 06:15 8.96 3530 5010 (2017) 365 (2001) 2130 520 600 818 929 2020 3230 3420 3950 4190
2024-05-20 05:15 8.97 3530 5010 (2017) 365 (2001) 2130 520 600 818 929 2020 3230 3420 3950 4190
2024-05-20 04:15 8.98 3540 5010 (2017) 365 (2001) 2130 520 600 818 929 2020 3230 3420 3950 4190
2024-05-20 03:15 9.00 3550 5010 (2017) 365 (2001) 2130 520 600 818 929 2020 3230 3420 3950 4190
2024-05-20 02:15 9.00 3550 5010 (2017) 365 (2001) 2130 520 600 818 929 2020 3230 3420 3950 4190
2024-05-20 01:15 9.00 3550 5010 (2017) 365 (2001) 2130 520 600 818 929 2020 3230 3420 3950 4190
2024-05-20 00:15 9.03 3560 5010 (2017) 365 (2001) 2130 520 600 818 929 2020 3230 3420 3950 4190
2024-05-19 23:15 9.03 3560 5010 (2017) 365 (2001) 2130 520 600 818 929 2020 3230 3420 3950 4190

A total of 177 rows are displayed for years 1949 through 2023.